createdAt,value
2018-06-13T00:00:42.739Z,0
2018-06-13T00:01:42.727Z,0
2018-06-13T00:02:43.289Z,0
2018-06-13T00:03:43.510Z,0
2018-06-13T00:04:43.056Z,0
2018-06-13T00:05:43.026Z,0
2018-06-13T00:06:42.984Z,0
2018-06-13T00:07:43.256Z,0
2018-06-13T00:08:42.779Z,0
2018-06-13T00:09:42.768Z,0
2018-06-13T00:10:43.373Z,0
2018-06-13T00:11:42.980Z,0
2018-06-13T00:12:42.966Z,0
2018-06-13T00:13:42.987Z,0
2018-06-13T00:14:42.989Z,0
2018-06-13T00:15:42.725Z,0
2018-06-13T00:16:43.025Z,0
2018-06-13T00:17:42.728Z,0
2018-06-13T00:18:42.998Z,0
2018-06-13T00:19:43.235Z,0
2018-06-13T00:20:42.746Z,0
2018-06-13T00:21:42.559Z,0
2018-06-13T00:22:42.985Z,0
2018-06-13T00:23:42.967Z,0
2018-06-13T00:24:42.987Z,0
2018-06-13T00:25:42.718Z,0
2018-06-13T00:26:42.913Z,0
2018-06-13T00:27:43.532Z,0
2018-06-13T00:28:42.990Z,0
2018-06-13T00:29:43.508Z,0
2018-06-13T00:30:42.712Z,0
2018-06-13T00:31:43.240Z,0
2018-06-13T00:32:42.990Z,0
2018-06-13T00:33:42.965Z,0
2018-06-13T00:34:42.840Z,0
2018-06-13T00:35:42.995Z,0
2018-06-13T00:36:43.290Z,0
2018-06-13T00:37:43.234Z,0
2018-06-13T00:38:42.970Z,0
2018-06-13T00:39:42.714Z,0
2018-06-13T00:40:43.487Z,0
2018-06-13T00:41:42.716Z,0
2018-06-13T00:42:43.225Z,0
2018-06-13T00:43:43.220Z,0
2018-06-13T00:44:42.960Z,0
2018-06-13T00:45:42.957Z,0
2018-06-13T00:46:42.999Z,0
2018-06-13T00:47:42.708Z,0
2018-06-13T00:48:42.964Z,0
2018-06-13T00:49:43.216Z,0
2018-06-13T00:50:42.951Z,0
2018-06-13T00:51:42.757Z,0
2018-06-13T00:52:42.966Z,0
2018-06-13T00:53:42.473Z,0
2018-06-13T00:54:43.223Z,0
2018-06-13T00:55:43.476Z,0
2018-06-13T00:56:44.523Z,0
2018-06-13T00:57:43.582Z,0
2018-06-13T00:58:43.213Z,0
2018-06-13T00:59:43.217Z,0
2018-06-13T01:00:42.967Z,0
2018-06-13T01:01:42.984Z,0
2018-06-13T01:02:43.256Z,0
2018-06-13T01:03:43.213Z,0
2018-06-13T01:04:43.232Z,0
2018-06-13T01:05:43.783Z,0
2018-06-13T01:06:42.730Z,0
2018-06-13T01:07:43.235Z,0
2018-06-13T01:08:42.733Z,0
2018-06-13T01:09:42.696Z,0
2018-06-13T01:10:42.972Z,0
2018-06-13T01:11:42.956Z,0
2018-06-13T01:12:43.214Z,0
2018-06-13T01:13:43.243Z,0
2018-06-13T01:14:42.953Z,0
2018-06-13T01:15:43.306Z,0
2018-06-13T01:16:42.686Z,0
2018-06-13T01:17:42.422Z,0
2018-06-13T01:18:42.704Z,0
2018-06-13T01:19:42.695Z,0
2018-06-13T01:20:42.964Z,0
2018-06-13T01:21:42.992Z,0
2018-06-13T01:22:42.956Z,0
2018-06-13T01:23:42.960Z,0
2018-06-13T01:24:42.704Z,0
2018-06-13T01:25:43.462Z,0
2018-06-13T01:26:46.719Z,0
2018-06-13T01:27:43.477Z,0
2018-06-13T01:28:43.213Z,0
2018-06-13T01:29:42.995Z,0
2018-06-13T01:30:43.277Z,0
2018-06-13T01:31:43.324Z,0
2018-06-13T01:32:43.481Z,0
2018-06-13T01:33:42.704Z,0
2018-06-13T01:34:43.467Z,0
2018-06-13T01:35:42.965Z,0
2018-06-13T01:36:43.468Z,0
2018-06-13T01:37:43.214Z,0
2018-06-13T01:38:42.942Z,0
2018-06-13T01:39:43.468Z,0
2018-06-13T01:40:42.693Z,0
2018-06-13T01:41:42.939Z,0
2018-06-13T01:42:42.683Z,0
2018-06-13T01:43:42.944Z,0
2018-06-13T01:44:42.953Z,0
2018-06-13T01:45:42.938Z,0
2018-06-13T01:46:42.937Z,0
2018-06-13T01:47:43.219Z,0
2018-06-13T01:48:42.944Z,0
2018-06-13T01:49:43.214Z,0
2018-06-13T01:50:42.921Z,0
2018-06-13T01:51:42.945Z,0
2018-06-13T01:52:43.192Z,0
2018-06-13T01:53:43.200Z,0
2018-06-13T01:54:42.924Z,0
2018-06-13T01:55:42.967Z,0
2018-06-13T01:56:42.672Z,0
2018-06-13T01:57:43.178Z,0
2018-06-13T01:58:43.190Z,0
2018-06-13T01:59:42.689Z,0
2018-06-13T02:00:43.192Z,0
2018-06-13T02:01:43.071Z,0
2018-06-13T02:02:42.665Z,0
2018-06-13T02:03:42.672Z,0
2018-06-13T02:04:42.674Z,0
2018-06-13T02:05:42.666Z,0
2018-06-13T02:06:42.676Z,0
2018-06-13T02:07:43.452Z,0
2018-06-13T02:08:43.434Z,0
2018-06-13T02:09:43.177Z,0
2018-06-13T02:10:42.932Z,0
2018-06-13T02:11:42.991Z,0
2018-06-13T02:12:43.495Z,0
2018-06-13T02:13:43.210Z,0
2018-06-13T02:14:43.173Z,0
2018-06-13T02:15:42.920Z,0
2018-06-13T02:16:42.928Z,0
2018-06-13T02:17:42.651Z,0
2018-06-13T02:18:42.679Z,0
2018-06-13T02:19:43.198Z,0
2018-06-13T02:20:42.925Z,0
2018-06-13T02:21:42.986Z,0
2018-06-13T02:22:43.164Z,0
2018-06-13T02:23:42.652Z,0
2018-06-13T02:24:42.934Z,0
2018-06-13T02:25:43.489Z,0
2018-06-13T02:26:43.227Z,0
2018-06-13T02:27:43.167Z,0
2018-06-13T02:28:42.911Z,0
2018-06-13T02:29:42.908Z,0
2018-06-13T02:30:42.906Z,0
2018-06-13T02:31:43.507Z,0
2018-06-13T02:32:43.483Z,0
2018-06-13T02:33:42.915Z,0
2018-06-13T02:34:42.671Z,0
2018-06-13T02:35:43.255Z,0
2018-06-13T02:36:43.201Z,0
2018-06-13T02:37:43.188Z,0
2018-06-13T02:38:43.520Z,0
2018-06-13T02:39:42.651Z,0
2018-06-13T02:40:43.440Z,0
2018-06-13T02:41:43.216Z,0
2018-06-13T02:42:43.489Z,0
2018-06-13T02:43:43.161Z,0
2018-06-13T02:44:42.882Z,0
2018-06-13T02:45:43.171Z,0
2018-06-13T02:46:43.143Z,0
2018-06-13T02:47:43.152Z,0
2018-06-13T02:48:43.426Z,0
2018-06-13T02:49:43.188Z,0
2018-06-13T02:50:42.629Z,0
2018-06-13T02:51:43.146Z,0
2018-06-13T02:52:42.906Z,0
2018-06-13T02:53:42.652Z,0
2018-06-13T02:54:42.916Z,0
2018-06-13T02:55:43.164Z,0
2018-06-13T02:56:42.900Z,0
2018-06-13T02:57:44.203Z,0
2018-06-13T02:58:43.156Z,0
2018-06-13T02:59:42.966Z,0
2018-06-13T03:00:42.879Z,0
2018-06-13T03:01:43.147Z,0
2018-06-13T03:02:43.136Z,0
2018-06-13T03:03:42.615Z,0
2018-06-13T03:04:43.148Z,0
2018-06-13T03:05:42.972Z,0
2018-06-13T03:06:43.136Z,0
2018-06-13T03:07:43.135Z,0
2018-06-13T03:08:43.160Z,0
2018-06-13T03:09:43.399Z,0
2018-06-13T03:10:43.138Z,0
2018-06-13T03:11:43.385Z,0
2018-06-13T03:12:43.192Z,0
2018-06-13T03:13:43.437Z,0
2018-06-13T03:14:43.123Z,0
2018-06-13T03:15:43.107Z,0
2018-06-13T03:16:43.159Z,0
2018-06-13T03:17:42.850Z,0
2018-06-13T03:18:42.602Z,0
2018-06-13T03:19:43.357Z,0
2018-06-13T03:20:43.370Z,0
2018-06-13T03:21:42.880Z,0
2018-06-13T03:22:43.109Z,0
2018-06-13T03:23:43.415Z,0
2018-06-13T03:24:43.122Z,0
2018-06-13T03:25:43.357Z,0
2018-06-13T03:26:42.853Z,0
2018-06-13T03:27:43.699Z,0
2018-06-13T03:28:42.842Z,0
2018-06-13T03:29:43.356Z,0
2018-06-13T03:30:43.389Z,0
2018-06-13T03:31:43.476Z,0
2018-06-13T03:32:43.097Z,0
2018-06-13T03:33:43.099Z,0
2018-06-13T03:34:43.110Z,0
2018-06-13T03:35:43.105Z,0
2018-06-13T03:36:43.102Z,0
2018-06-13T03:37:42.838Z,0
2018-06-13T03:38:42.823Z,0
2018-06-13T03:39:43.360Z,0
2018-06-13T03:40:42.814Z,0
2018-06-13T03:41:42.837Z,0
2018-06-13T03:42:43.079Z,0
2018-06-13T03:43:43.339Z,0
2018-06-13T03:44:43.109Z,0
2018-06-13T03:45:43.089Z,0
2018-06-13T03:46:43.097Z,0
2018-06-13T03:47:43.075Z,0
2018-06-13T03:48:43.063Z,5
2018-06-13T03:49:43.083Z,5
2018-06-13T03:50:43.346Z,5
2018-06-13T03:51:43.073Z,5
2018-06-13T03:52:42.819Z,5
2018-06-13T03:53:42.818Z,5
2018-06-13T03:54:43.085Z,5
2018-06-13T03:55:42.831Z,5
2018-06-13T03:56:42.809Z,5
2018-06-13T03:57:44.683Z,5
2018-06-13T03:58:43.086Z,5
2018-06-13T03:59:42.838Z,5
2018-06-13T04:00:42.828Z,5
2018-06-13T04:01:42.882Z,5
2018-06-13T04:02:42.807Z,5
2018-06-13T04:03:43.339Z,5
2018-06-13T04:04:42.815Z,5
2018-06-13T04:05:42.830Z,5
2018-06-13T04:06:43.122Z,5
2018-06-13T04:07:43.053Z,5
2018-06-13T04:08:43.056Z,5
2018-06-13T04:09:43.057Z,5
2018-06-13T04:10:43.076Z,5
2018-06-13T04:11:43.365Z,5
2018-06-13T04:12:43.109Z,5
2018-06-13T04:13:42.897Z,5
2018-06-13T04:14:43.311Z,5
2018-06-13T04:15:43.317Z,5
2018-06-13T04:16:43.057Z,5
2018-06-13T04:17:42.526Z,5
2018-06-13T04:18:43.060Z,10
2018-06-13T04:19:42.783Z,10
2018-06-13T04:20:43.063Z,10
2018-06-13T04:21:42.781Z,10
2018-06-13T04:22:43.077Z,10
2018-06-13T04:23:43.039Z,10
2018-06-13T04:24:43.064Z,10
2018-06-13T04:25:43.298Z,10
2018-06-13T04:26:43.308Z,10
2018-06-13T04:27:43.065Z,10
2018-06-13T04:28:44.904Z,10
2018-06-13T04:29:42.563Z,10
2018-06-13T04:30:43.077Z,10
2018-06-13T04:31:43.068Z,10
2018-06-13T04:32:43.196Z,10
2018-06-13T04:33:42.788Z,10
2018-06-13T04:34:42.576Z,10
2018-06-13T04:35:43.360Z,10
2018-06-13T04:36:43.341Z,10
2018-06-13T04:37:43.065Z,10
2018-06-13T04:38:43.040Z,10
2018-06-13T04:39:42.777Z,10
2018-06-13T04:40:43.034Z,10
2018-06-13T04:41:43.310Z,15
2018-06-13T04:42:43.301Z,15
2018-06-13T04:43:43.035Z,15
2018-06-13T04:44:43.049Z,20
2018-06-13T04:45:42.519Z,20
2018-06-13T04:46:42.769Z,20
2018-06-13T04:47:42.760Z,20
2018-06-13T04:48:43.030Z,20
2018-06-13T04:49:43.035Z,20
2018-06-13T04:50:43.035Z,20
2018-06-13T04:51:43.011Z,20
2018-06-13T04:52:43.012Z,20
2018-06-13T04:53:43.273Z,25
2018-06-13T04:54:43.037Z,25
2018-06-13T04:55:42.242Z,25
2018-06-13T04:56:43.092Z,25
2018-06-13T04:57:43.287Z,20
2018-06-13T04:58:43.039Z,25
2018-06-13T04:59:42.758Z,25
2018-06-13T05:00:43.043Z,25
2018-06-13T05:01:42.508Z,25
2018-06-13T05:02:45.267Z,25
2018-06-13T05:03:43.817Z,30
2018-06-13T05:04:42.756Z,30
2018-06-13T05:05:42.855Z,30
2018-06-13T05:06:42.996Z,30
2018-06-13T05:07:43.017Z,25
2018-06-13T05:08:43.266Z,25
2018-06-13T05:09:43.025Z,25
2018-06-13T05:10:43.003Z,25
2018-06-13T05:11:42.812Z,25
2018-06-13T05:12:43.258Z,25
2018-06-13T05:13:43.064Z,25
2018-06-13T05:14:43.088Z,25
2018-06-13T05:15:42.772Z,25
2018-06-13T05:16:43.342Z,25
2018-06-13T05:17:43.001Z,25
2018-06-13T05:18:43.033Z,30
2018-06-13T05:19:43.261Z,30
2018-06-13T05:20:42.750Z,30
2018-06-13T05:21:42.748Z,30
2018-06-13T05:22:43.004Z,25
2018-06-13T05:23:42.522Z,25
2018-06-13T05:24:42.728Z,30
2018-06-13T05:25:43.026Z,25
2018-06-13T05:26:42.748Z,25
2018-06-13T05:27:42.989Z,30
2018-06-13T05:28:44.799Z,30
2018-06-13T05:29:42.730Z,35
2018-06-13T05:30:43.000Z,35
2018-06-13T05:31:42.991Z,35
2018-06-13T05:32:42.752Z,35
2018-06-13T05:33:43.002Z,30
2018-06-13T05:34:42.745Z,30
2018-06-13T05:35:42.734Z,30
2018-06-13T05:36:42.989Z,35
2018-06-13T05:37:42.726Z,35
2018-06-13T05:38:43.241Z,40
2018-06-13T05:39:43.002Z,40
2018-06-13T05:40:42.727Z,40
2018-06-13T05:41:42.991Z,40
2018-06-13T05:42:42.993Z,40
2018-06-13T05:43:43.255Z,40
2018-06-13T05:44:43.241Z,35
2018-06-13T05:45:43.242Z,35
2018-06-13T05:46:42.718Z,40
2018-06-13T05:47:42.976Z,40
2018-06-13T05:48:42.976Z,40
2018-06-13T05:49:42.721Z,40
2018-06-13T05:50:42.470Z,40
2018-06-13T05:51:42.452Z,45
2018-06-13T05:52:42.478Z,50
2018-06-13T05:53:42.714Z,50
2018-06-13T05:54:42.719Z,50
2018-06-13T05:55:43.255Z,50
2018-06-13T05:56:42.724Z,50
2018-06-13T05:57:42.973Z,55
2018-06-13T05:58:42.738Z,55
2018-06-13T05:59:44.894Z,50
2018-06-13T06:00:42.717Z,50
2018-06-13T06:01:42.968Z,50
2018-06-13T06:02:42.725Z,50
2018-06-13T06:03:42.974Z,50
2018-06-13T06:04:42.971Z,50
2018-06-13T06:05:42.727Z,50
2018-06-13T06:06:42.974Z,50
2018-06-13T06:07:42.961Z,50
2018-06-13T06:08:42.973Z,55
2018-06-13T06:09:43.231Z,55
2018-06-13T06:10:42.741Z,60
2018-06-13T06:11:42.969Z,60
2018-06-13T06:12:42.984Z,60
2018-06-13T06:13:42.729Z,65
2018-06-13T06:14:43.232Z,70
2018-06-13T06:15:42.764Z,75
2018-06-13T06:16:42.726Z,80
2018-06-13T06:17:42.968Z,80
2018-06-13T06:18:42.740Z,85
2018-06-13T06:19:42.966Z,85
2018-06-13T06:20:42.978Z,80
2018-06-13T06:21:43.248Z,80
2018-06-13T06:22:42.965Z,75
2018-06-13T06:23:43.239Z,70
2018-06-13T06:24:42.955Z,70
2018-06-13T06:25:42.986Z,70
2018-06-13T06:26:42.965Z,70
2018-06-13T06:27:43.238Z,70
2018-06-13T06:28:43.004Z,65
2018-06-13T06:29:43.219Z,70
2018-06-13T06:30:42.455Z,70
2018-06-13T06:31:42.711Z,70
2018-06-13T06:32:42.985Z,70
2018-06-13T06:33:42.713Z,70
2018-06-13T06:34:43.271Z,70
2018-06-13T06:35:42.964Z,65
2018-06-13T06:36:42.730Z,65
2018-06-13T06:37:42.700Z,65
2018-06-13T06:38:42.702Z,60
2018-06-13T06:39:43.012Z,65
2018-06-13T06:40:42.960Z,65
2018-06-13T06:41:42.953Z,65
2018-06-13T06:42:42.737Z,65
2018-06-13T06:43:42.721Z,70
2018-06-13T06:44:42.500Z,70
2018-06-13T06:45:42.692Z,75
2018-06-13T06:46:43.317Z,75
2018-06-13T06:47:42.999Z,80
2018-06-13T06:48:42.953Z,85
2018-06-13T06:49:42.804Z,95
2018-06-13T06:50:42.447Z,100
2018-06-13T06:51:43.007Z,105
2018-06-13T06:52:43.238Z,110
2018-06-13T06:53:42.958Z,115
2018-06-13T06:54:42.186Z,120
2018-06-13T06:55:43.461Z,125
2018-06-13T06:56:42.311Z,135
2018-06-13T06:57:42.994Z,145
2018-06-13T06:58:42.931Z,150
2018-06-13T06:59:42.690Z,155
2018-06-13T07:00:42.678Z,160
2018-06-13T07:01:42.739Z,155
2018-06-13T07:02:42.512Z,150
2018-06-13T07:03:42.975Z,145
2018-06-13T07:04:42.962Z,145
2018-06-13T07:05:42.948Z,145
2018-06-13T07:06:42.685Z,150
2018-06-13T07:07:42.943Z,155
2018-06-13T07:08:42.948Z,165
2018-06-13T07:09:42.188Z,170
2018-06-13T07:10:42.688Z,175
2018-06-13T07:11:42.700Z,180
2018-06-13T07:12:42.445Z,185
2018-06-13T07:13:42.717Z,190
2018-06-13T07:14:42.442Z,195
2018-06-13T07:15:42.459Z,200
2018-06-13T07:16:43.209Z,205
2018-06-13T07:17:42.694Z,210
2018-06-13T07:18:43.207Z,215
2018-06-13T07:19:42.698Z,220
2018-06-13T07:20:42.950Z,215
2018-06-13T07:21:42.706Z,205
2018-06-13T07:22:43.202Z,195
2018-06-13T07:23:42.454Z,195
2018-06-13T07:24:43.369Z,205
2018-06-13T07:25:42.713Z,215
2018-06-13T07:26:42.693Z,215
2018-06-13T07:27:42.696Z,205
2018-06-13T07:28:42.952Z,185
2018-06-13T07:29:42.968Z,175
2018-06-13T07:30:42.934Z,165
2018-06-13T07:31:42.711Z,165
2018-06-13T07:32:42.719Z,165
2018-06-13T07:33:42.998Z,165
2018-06-13T07:34:42.726Z,170
2018-06-13T07:35:42.969Z,180
2018-06-13T07:36:42.742Z,205
2018-06-13T07:37:42.949Z,205
2018-06-13T07:38:42.438Z,220
2018-06-13T07:39:42.735Z,245
2018-06-13T07:40:42.966Z,265
2018-06-13T07:41:42.601Z,290
2018-06-13T07:42:42.966Z,295
2018-06-13T07:43:42.457Z,300
2018-06-13T07:44:42.961Z,300
2018-06-13T07:45:43.018Z,300
2018-06-13T07:46:42.724Z,300
2018-06-13T07:47:42.511Z,305
2018-06-13T07:48:42.967Z,320
2018-06-13T07:49:42.863Z,320
2018-06-13T07:50:43.230Z,310
2018-06-13T07:51:43.252Z,300
2018-06-13T07:52:42.710Z,285
2018-06-13T07:53:42.467Z,275
2018-06-13T07:54:42.252Z,290
2018-06-13T07:55:42.745Z,305
2018-06-13T07:56:42.459Z,295
2018-06-13T07:57:42.724Z,270
2018-06-13T07:58:43.248Z,245
2018-06-13T07:59:42.794Z,230
2018-06-13T08:00:44.303Z,225
2018-06-13T08:01:42.977Z,220
2018-06-13T08:02:42.972Z,210
2018-06-13T08:03:42.728Z,185
2018-06-13T08:04:42.738Z,175
2018-06-13T08:05:42.865Z,170
2018-06-13T08:06:42.468Z,170
2018-06-13T08:07:42.476Z,170
2018-06-13T08:08:43.030Z,180
2018-06-13T08:09:42.753Z,195
2018-06-13T08:10:42.995Z,200
2018-06-13T08:11:43.030Z,215
2018-06-13T08:12:43.262Z,235
2018-06-13T08:13:43.253Z,240
2018-06-13T08:14:42.759Z,240
2018-06-13T08:15:43.062Z,235
2018-06-13T08:16:43.016Z,220
2018-06-13T08:17:42.742Z,205
2018-06-13T08:18:43.256Z,190
2018-06-13T08:19:42.736Z,170
2018-06-13T08:20:42.747Z,160
2018-06-13T08:21:43.268Z,150
2018-06-13T08:22:43.004Z,140
2018-06-13T08:23:42.769Z,135
2018-06-13T08:24:43.003Z,125
2018-06-13T08:25:42.749Z,120
2018-06-13T08:26:42.753Z,115
2018-06-13T08:27:42.758Z,115
2018-06-13T08:28:42.750Z,115
2018-06-13T08:29:42.501Z,115
2018-06-13T08:30:42.761Z,115
2018-06-13T08:31:42.837Z,115
2018-06-13T08:32:42.738Z,110
2018-06-13T08:33:43.130Z,105
2018-06-13T08:34:42.797Z,105
2018-06-13T08:35:43.049Z,100
2018-06-13T08:36:43.276Z,95
2018-06-13T08:37:42.788Z,95
2018-06-13T08:38:42.773Z,95
2018-06-13T08:39:42.745Z,95
2018-06-13T08:40:42.758Z,95
2018-06-13T08:41:42.518Z,90
2018-06-13T08:42:43.024Z,90
2018-06-13T08:43:43.056Z,85
2018-06-13T08:44:43.059Z,85
2018-06-13T08:45:42.758Z,85
2018-06-13T08:46:42.849Z,90
2018-06-13T08:47:43.033Z,90
2018-06-13T08:48:42.589Z,95
2018-06-13T08:49:43.052Z,95
2018-06-13T08:50:43.025Z,100
2018-06-13T08:51:42.763Z,100
2018-06-13T08:52:42.774Z,95
2018-06-13T08:53:42.764Z,90
2018-06-13T08:54:43.286Z,80
2018-06-13T08:55:43.387Z,80
2018-06-13T08:56:42.791Z,75
2018-06-13T08:57:43.027Z,80
2018-06-13T08:58:43.029Z,80
2018-06-13T08:59:43.338Z,85
2018-06-13T09:00:43.067Z,85
2018-06-13T09:01:43.026Z,85
2018-06-13T09:02:42.517Z,85
2018-06-13T09:03:42.753Z,85
2018-06-13T09:04:43.285Z,90
2018-06-13T09:05:42.782Z,90
2018-06-13T09:06:43.327Z,95
2018-06-13T09:07:43.052Z,100
2018-06-13T09:08:43.033Z,100
2018-06-13T09:09:42.773Z,100
2018-06-13T09:10:43.297Z,105
2018-06-13T09:11:43.122Z,110
2018-06-13T09:12:43.046Z,120
2018-06-13T09:13:43.290Z,130
2018-06-13T09:14:42.767Z,135
2018-06-13T09:15:42.786Z,145
2018-06-13T09:16:43.048Z,160
2018-06-13T09:17:42.766Z,170
2018-06-13T09:18:42.531Z,190
2018-06-13T09:19:43.273Z,200
2018-06-13T09:20:43.264Z,220
2018-06-13T09:21:42.507Z,245
2018-06-13T09:22:43.026Z,260
2018-06-13T09:23:42.792Z,275
2018-06-13T09:24:43.273Z,280
2018-06-13T09:25:42.527Z,280
2018-06-13T09:26:42.768Z,280
2018-06-13T09:27:43.035Z,280
2018-06-13T09:28:42.760Z,280
2018-06-13T09:29:43.373Z,280
2018-06-13T09:30:43.120Z,280
2018-06-13T09:31:42.601Z,280
2018-06-13T09:32:43.273Z,275
2018-06-13T09:33:43.017Z,265
2018-06-13T09:34:42.531Z,250
2018-06-13T09:35:43.034Z,255
2018-06-13T09:36:43.016Z,260
2018-06-13T09:37:43.682Z,255
2018-06-13T09:38:43.019Z,245
2018-06-13T09:39:42.526Z,250
2018-06-13T09:40:42.519Z,245
2018-06-13T09:41:42.795Z,260
2018-06-13T09:42:42.794Z,260
2018-06-13T09:43:42.799Z,250
2018-06-13T09:44:42.779Z,240
2018-06-13T09:45:42.519Z,235
2018-06-13T09:46:48.917Z,230
2018-06-13T09:47:43.277Z,215
2018-06-13T09:48:43.031Z,210
2018-06-13T09:49:43.049Z,200
2018-06-13T09:50:43.028Z,195
2018-06-13T09:51:43.051Z,190
2018-06-13T09:52:43.031Z,180
2018-06-13T09:53:43.296Z,175
2018-06-13T09:54:43.094Z,175
2018-06-13T09:55:43.054Z,175
2018-06-13T09:56:42.916Z,175
2018-06-13T09:57:42.527Z,180
2018-06-13T09:58:43.052Z,185
2018-06-13T09:59:42.801Z,200
2018-06-13T10:00:43.555Z,205
2018-06-13T10:01:43.567Z,210
2018-06-13T10:02:43.071Z,225
2018-06-13T10:03:42.300Z,235
2018-06-13T10:04:43.211Z,240
2018-06-13T10:05:42.811Z,245
2018-06-13T10:06:42.799Z,250
2018-06-13T10:07:42.808Z,255
2018-06-13T10:08:43.176Z,260
2018-06-13T10:09:42.820Z,265
2018-06-13T10:10:43.066Z,265
2018-06-13T10:11:43.074Z,270
2018-06-13T10:12:43.072Z,275
2018-06-13T10:13:43.057Z,275
2018-06-13T10:14:42.813Z,270
2018-06-13T10:15:43.075Z,270
2018-06-13T10:16:42.811Z,260
2018-06-13T10:17:43.351Z,250
2018-06-13T10:18:43.570Z,240
2018-06-13T10:19:42.802Z,230
2018-06-13T10:20:43.068Z,225
2018-06-13T10:21:43.096Z,215
2018-06-13T10:22:43.340Z,210
2018-06-13T10:53:35.746Z,170
2018-06-13T10:54:34.110Z,180
2018-06-13T10:55:34.712Z,185
2018-06-13T10:56:34.613Z,190
2018-06-13T10:57:34.321Z,195
2018-06-13T10:58:34.057Z,205
2018-06-13T10:59:34.323Z,215
2018-06-13T11:00:34.578Z,230
2018-06-13T11:01:34.364Z,235
2018-06-13T11:02:34.592Z,250
2018-06-13T11:03:34.573Z,265
2018-06-13T11:04:34.336Z,275
2018-06-13T11:05:34.639Z,285
2018-06-13T11:06:34.933Z,295
2018-06-13T11:07:34.075Z,310
2018-06-13T11:08:34.090Z,325
2018-06-13T11:09:34.340Z,330
2018-06-13T11:10:34.324Z,345
2018-06-13T11:11:34.689Z,360
2018-06-13T11:12:34.083Z,365
2018-06-13T11:13:34.332Z,370
2018-06-13T11:14:34.590Z,375
2018-06-13T11:15:33.814Z,385
2018-06-13T11:16:34.325Z,395
2018-06-13T11:17:34.590Z,400
2018-06-13T11:18:34.604Z,410
2018-06-13T11:19:34.626Z,410
2018-06-13T11:20:34.436Z,410
2018-06-13T11:21:34.387Z,415
2018-06-13T11:22:34.647Z,420
2018-06-13T11:23:34.600Z,425
2018-06-13T11:24:34.137Z,430
2018-06-13T11:25:34.891Z,440
2018-06-13T11:26:34.922Z,450
2018-06-13T11:27:34.115Z,455
2018-06-13T11:28:34.393Z,455
2018-06-13T11:29:34.394Z,455
2018-06-13T11:30:34.965Z,455
2018-06-13T11:31:34.598Z,455
2018-06-13T11:32:34.618Z,450
2018-06-13T11:33:34.377Z,440
2018-06-13T11:34:34.628Z,445
2018-06-13T11:35:34.657Z,445
2018-06-13T11:36:35.010Z,440
2018-06-13T11:37:34.386Z,435
2018-06-13T11:38:34.393Z,430
2018-06-13T11:39:34.402Z,435
2018-06-13T11:40:34.384Z,435
2018-06-13T11:41:34.611Z,435
2018-06-13T11:42:34.908Z,420
2018-06-13T11:43:34.410Z,410
2018-06-13T11:44:35.386Z,405
2018-06-13T11:45:34.235Z,395
2018-06-13T11:46:34.668Z,380
2018-06-13T11:47:34.135Z,365
2018-06-13T11:48:33.876Z,365
2018-06-13T11:49:34.738Z,350
2018-06-13T11:50:34.658Z,340
2018-06-13T11:51:34.418Z,330
2018-06-13T11:52:34.416Z,320
2018-06-13T11:53:34.834Z,320
2018-06-13T11:54:34.456Z,320
2018-06-13T11:55:34.679Z,315
2018-06-13T11:56:34.761Z,315
2018-06-13T11:57:34.433Z,310
2018-06-13T11:58:34.980Z,315
2018-06-13T11:59:34.694Z,325
2018-06-13T12:00:35.117Z,335
2018-06-13T12:01:34.499Z,340
2018-06-13T12:02:34.730Z,355
2018-06-13T12:03:34.445Z,360
2018-06-13T12:04:34.446Z,365
2018-06-13T12:05:34.209Z,370
2018-06-13T12:06:34.293Z,375
2018-06-13T12:07:33.952Z,375
2018-06-13T12:08:35.019Z,375
2018-06-13T12:09:34.845Z,375
2018-06-13T12:10:34.527Z,375
2018-06-13T12:11:35.287Z,375
2018-06-13T12:12:34.234Z,375
2018-06-13T12:13:35.034Z,375
2018-06-13T12:14:34.486Z,370
2018-06-13T12:15:34.224Z,370
2018-06-13T12:16:35.081Z,365
2018-06-13T12:17:34.753Z,355
2018-06-13T12:18:34.199Z,335
2018-06-13T12:19:34.491Z,315
2018-06-13T12:20:34.743Z,285
2018-06-13T12:21:34.493Z,250
2018-06-13T12:22:34.616Z,215
2018-06-13T12:23:35.069Z,185
2018-06-13T12:24:34.249Z,145
2018-06-13T12:25:34.505Z,120
2018-06-13T12:26:34.758Z,105
2018-06-13T12:27:34.522Z,90
2018-06-13T12:28:34.583Z,90
2018-06-13T12:29:34.260Z,85
2018-06-13T12:30:34.516Z,85
2018-06-13T12:31:34.756Z,85
2018-06-13T12:32:34.801Z,85
2018-06-13T12:33:34.291Z,85
2018-06-13T12:34:34.510Z,85
2018-06-13T12:35:34.788Z,85
2018-06-13T12:36:34.791Z,85
2018-06-13T12:37:34.786Z,85
2018-06-13T12:38:34.535Z,85
2018-06-13T12:39:34.546Z,85
2018-06-13T12:40:34.265Z,90
2018-06-13T12:41:34.524Z,90
2018-06-13T12:42:34.543Z,95
2018-06-13T12:43:34.573Z,95
2018-06-13T12:44:34.795Z,95
2018-06-13T12:45:34.712Z,95
2018-06-13T12:46:34.608Z,95
2018-06-13T12:47:34.798Z,100
2018-06-13T12:48:34.813Z,100
2018-06-13T12:49:35.072Z,105
2018-06-13T12:50:35.065Z,105
2018-06-13T12:51:34.817Z,115
2018-06-13T12:52:35.054Z,110
2018-06-13T12:53:34.285Z,115
2018-06-13T12:54:34.286Z,120
2018-06-13T12:55:35.118Z,125
2018-06-13T12:56:34.846Z,135
2018-06-13T12:57:34.624Z,140
2018-06-13T12:58:34.540Z,140
2018-06-13T12:59:34.303Z,150
2018-06-13T13:00:34.521Z,155
2018-06-13T13:01:35.140Z,165
2018-06-13T13:02:34.810Z,170
2018-06-13T13:03:34.301Z,185
2018-06-13T13:04:34.883Z,190
2018-06-13T13:05:34.807Z,200
2018-06-13T13:06:34.882Z,205
2018-06-13T13:07:34.797Z,215
2018-06-13T13:08:34.814Z,230
2018-06-13T13:09:35.077Z,240
2018-06-13T13:10:34.866Z,255
2018-06-13T13:11:34.793Z,265
2018-06-13T13:12:34.807Z,280
2018-06-13T13:13:34.565Z,295
2018-06-13T13:14:34.557Z,310
2018-06-13T13:15:35.067Z,325
2018-06-13T13:16:34.895Z,330
2018-06-13T13:17:34.562Z,340
2018-06-13T13:18:34.544Z,355
2018-06-13T13:19:34.819Z,360
2018-06-13T13:20:34.981Z,365
2018-06-13T13:21:34.331Z,370
2018-06-13T13:22:35.090Z,375
2018-06-13T13:23:35.083Z,370
2018-06-13T13:24:34.604Z,370
2018-06-13T13:25:35.164Z,365
2018-06-13T13:26:34.652Z,365
2018-06-13T13:27:34.585Z,365
2018-06-13T13:28:35.100Z,360
2018-06-13T13:29:35.094Z,350
2018-06-13T13:30:34.824Z,335
2018-06-13T13:31:34.639Z,325
2018-06-13T13:32:35.068Z,320
2018-06-13T13:33:34.553Z,310
2018-06-13T13:34:34.829Z,300
2018-06-13T13:35:35.098Z,290
2018-06-13T13:36:34.645Z,280
2018-06-13T13:37:35.141Z,260
2018-06-13T13:38:35.958Z,250
2018-06-13T13:39:34.851Z,230
2018-06-13T13:40:35.091Z,205
2018-06-13T13:41:34.642Z,180
2018-06-13T13:42:35.147Z,160
2018-06-13T13:43:34.862Z,140
2018-06-13T13:44:34.349Z,125
2018-06-13T13:45:35.330Z,120
2018-06-13T13:46:34.926Z,110
2018-06-13T13:47:34.895Z,105
2018-06-13T13:48:34.884Z,105
2018-06-13T13:49:34.857Z,105
2018-06-13T13:50:34.850Z,105
2018-06-13T13:51:35.236Z,105
2018-06-13T13:52:34.871Z,110
2018-06-13T13:53:35.137Z,115
2018-06-13T13:54:34.881Z,125
2018-06-13T13:55:34.882Z,130
2018-06-13T13:56:34.938Z,135
2018-06-13T13:57:34.361Z,135
2018-06-13T13:58:34.878Z,145
2018-06-13T13:59:35.120Z,155
2018-06-13T14:00:34.969Z,160
2018-06-13T14:01:34.903Z,170
2018-06-13T14:02:34.874Z,180
2018-06-13T14:03:34.875Z,185
2018-06-13T14:04:34.872Z,195
2018-06-13T14:05:34.637Z,205
2018-06-13T14:06:34.419Z,215
2018-06-13T14:07:34.633Z,220
2018-06-13T14:08:34.664Z,230
2018-06-13T14:09:34.637Z,235
2018-06-13T14:10:34.409Z,245
2018-06-13T14:11:34.640Z,255
2018-06-13T14:12:34.916Z,265
2018-06-13T14:13:34.657Z,280
2018-06-13T14:14:34.383Z,285
2018-06-13T14:15:34.917Z,295
2018-06-13T14:16:34.638Z,300
2018-06-13T14:17:35.165Z,310
2018-06-13T14:18:34.381Z,315
2018-06-13T14:19:34.672Z,325
2018-06-13T14:20:34.922Z,325
2018-06-13T14:21:34.665Z,335
2018-06-13T14:22:34.527Z,340
2018-06-13T14:23:34.965Z,350
2018-06-13T14:24:34.423Z,360
2018-06-13T14:25:34.953Z,365
2018-06-13T14:26:34.904Z,365
2018-06-13T14:27:35.179Z,365
2018-06-13T14:28:34.674Z,365
2018-06-13T14:29:35.060Z,365
2018-06-13T14:30:34.932Z,360
2018-06-13T14:31:34.764Z,350
2018-06-13T14:32:35.026Z,345
2018-06-13T14:33:34.671Z,340
2018-06-13T14:34:34.990Z,335
2018-06-13T14:35:35.234Z,335
2018-06-13T14:36:35.115Z,325
2018-06-13T14:37:34.703Z,320
2018-06-13T14:38:35.200Z,315
2018-06-13T14:39:35.203Z,300
2018-06-13T14:40:34.692Z,300